Terminal Aerodrome Forecast
Issued by NWS

Home | Current Version | Previous Version | Text Only | Print | Product List | Glossary On
Versions: 1 2 3 4 5 6 7 8 9 10 11 12 13 14 15 16 17 18 19 20 21 22 23 24 25 26 27 28
000
FTUS41 KPBZ 250902 AAA
TAFDUJ
TAF AMD
KDUJ 250902Z 2509/2606 00000KT 2SM BR FEW035 BKN110
     FM251000 22004KT 3SM BR SCT001 BKN030
     FM251300 24006KT P6SM VCTS BKN030CB
     FM260000 26005KT P6SM SCT030=

USA.gov is the U.S. government's official web portal to all federal, state and local government web resources and services.